createdAt,value
2023-05-22T00:01:30.022Z,96621.00
2023-05-22T00:03:57.273Z,96628.00
2023-05-22T00:06:24.975Z,96622.00
2023-05-22T00:08:52.263Z,96623.00
2023-05-22T00:11:19.523Z,96623.00
2023-05-22T00:13:46.775Z,96620.00
2023-05-22T00:16:14.046Z,96623.00
2023-05-22T00:18:42.454Z,96613.00
2023-05-22T00:21:10.807Z,96616.00
2023-05-22T00:23:38.077Z,96607.00
2023-05-22T00:26:05.377Z,96612.00
2023-05-22T00:28:32.614Z,96617.00
2023-05-22T00:30:59.869Z,96619.00
2023-05-22T00:33:27.110Z,96612.00
2023-05-22T00:35:54.337Z,96609.00
2023-05-22T00:38:30.475Z,96611.00
2023-05-22T00:40:58.013Z,96614.00
2023-05-22T00:43:25.249Z,96620.00
2023-05-22T00:45:53.981Z,96615.00
2023-05-22T00:48:22.340Z,96611.00
2023-05-22T00:50:54.842Z,96614.00
2023-05-22T00:53:22.904Z,96614.00
2023-05-22T00:55:50.659Z,96614.00
2023-05-22T00:58:19.011Z,96620.00
2023-05-22T01:00:46.828Z,96624.00
2023-05-22T01:03:14.741Z,96627.00
2023-05-22T01:05:42.858Z,96627.00
2023-05-22T01:08:10.349Z,96626.00
2023-05-22T01:10:39.370Z,96627.00
2023-05-22T01:13:09.635Z,96618.00
2023-05-22T01:15:47.708Z,96619.00
2023-05-22T01:18:29.265Z,96618.00
2023-05-22T01:21:04.316Z,96614.00
2023-05-22T01:23:40.771Z,96619.00
2023-05-22T01:26:46.674Z,96625.00
2023-05-22T01:29:34.740Z,96617.00
2023-05-22T01:32:41.201Z,96619.00
2023-05-22T01:35:26.965Z,96636.00
2023-05-22T01:38:23.583Z,96622.00
2023-05-22T01:41:23.616Z,96622.00
2023-05-22T01:43:50.970Z,96626.00
2023-05-22T01:46:18.308Z,96619.00
2023-05-22T01:48:45.723Z,96630.00
2023-05-22T01:51:20.426Z,96624.00
2023-05-22T01:54:20.135Z,96625.00
2023-05-22T01:56:55.744Z,96620.00
2023-05-22T02:00:07.283Z,96622.00
2023-05-22T02:02:36.962Z,96622.00
2023-05-22T02:05:05.693Z,96621.00
2023-05-22T02:07:34.136Z,96625.00
2023-05-22T02:10:02.663Z,96624.00
2023-05-22T02:12:30.130Z,96622.00
2023-05-22T02:14:57.677Z,96626.00
2023-05-22T02:17:26.065Z,96630.00
2023-05-22T02:19:53.268Z,96623.00
2023-05-22T02:22:20.476Z,96627.00
2023-05-22T02:24:49.731Z,96630.00
2023-05-22T02:27:17.314Z,96618.00
2023-05-22T02:29:44.635Z,96615.00
2023-05-22T02:32:11.859Z,96616.00
2023-05-22T02:34:39.093Z,96611.00
2023-05-22T02:37:06.414Z,96614.00
2023-05-22T02:39:33.617Z,96611.00
2023-05-22T02:42:00.857Z,96608.00
2023-05-22T02:44:28.112Z,96608.00
2023-05-22T02:46:55.415Z,96610.00
2023-05-22T02:49:22.725Z,96607.00
2023-05-22T02:51:49.966Z,96603.00
2023-05-22T02:54:17.357Z,96602.00
2023-05-22T02:56:44.796Z,96603.00
2023-05-22T02:59:12.062Z,96595.00
2023-05-22T03:01:39.701Z,96591.00
2023-05-22T03:04:07.014Z,96601.00
2023-05-22T03:06:35.303Z,96596.00
2023-05-22T03:09:04.287Z,96601.00
2023-05-22T03:11:32.135Z,96599.00
2023-05-22T03:13:59.349Z,96598.00
2023-05-22T03:16:27.031Z,96595.00
2023-05-22T03:19:08.699Z,96597.00
2023-05-22T03:21:36.308Z,96600.00
2023-05-22T03:24:04.145Z,96596.00
2023-05-22T03:26:31.500Z,96604.00
2023-05-22T03:28:59.178Z,96601.00
2023-05-22T03:31:27.526Z,96600.00
2023-05-22T03:33:54.818Z,96604.00
2023-05-22T03:36:23.115Z,96605.00
2023-05-22T03:38:50.416Z,96598.00
2023-05-22T03:41:18.097Z,96601.00
2023-05-22T03:43:46.000Z,96599.00
2023-05-22T03:46:13.248Z,96605.00
2023-05-22T03:48:40.520Z,96602.00
2023-05-22T03:51:07.725Z,96604.00
2023-05-22T03:53:35.075Z,96602.00
2023-05-22T03:56:02.321Z,96597.00
2023-05-22T03:58:29.554Z,96601.00
2023-05-22T04:01:01.069Z,96611.00
2023-05-22T04:03:28.887Z,96608.00
2023-05-22T04:05:57.104Z,96612.00
2023-05-22T04:08:24.375Z,96606.00
2023-05-22T04:10:54.405Z,96606.00
2023-05-22T04:13:21.676Z,96607.00
2023-05-22T04:15:49.996Z,96611.00
2023-05-22T04:18:17.248Z,96606.00
2023-05-22T04:20:44.452Z,96610.00
2023-05-22T04:23:11.762Z,96610.00
2023-05-22T04:25:39.037Z,96615.00
2023-05-22T04:28:06.250Z,96621.00
2023-05-22T04:30:33.988Z,96623.00
2023-05-22T04:33:01.782Z,96622.00
2023-05-22T04:35:29.690Z,96628.00
2023-05-22T04:38:02.188Z,96631.00
2023-05-22T04:40:30.437Z,96623.00
2023-05-22T04:43:00.037Z,96636.00
2023-05-22T04:45:28.699Z,96635.00
2023-05-22T04:47:56.439Z,96637.00
2023-05-22T04:50:26.447Z,96636.00
2023-05-22T04:52:53.669Z,96638.00
2023-05-22T04:55:22.230Z,96635.00
2023-05-22T04:57:49.448Z,96636.00
2023-05-22T05:00:17.275Z,96639.00
2023-05-22T05:02:44.637Z,96636.00
2023-05-22T05:05:11.861Z,96645.00
2023-05-22T05:07:43.749Z,96643.00
2023-05-22T05:10:11.225Z,96642.00
2023-05-22T05:12:38.433Z,96644.00
2023-05-22T05:15:06.214Z,96644.00
2023-05-22T05:17:33.480Z,96640.00
2023-05-22T05:20:00.887Z,96640.00
2023-05-22T05:22:28.266Z,96642.00
2023-05-22T05:24:55.714Z,96648.00
2023-05-22T05:27:23.045Z,96647.00
2023-05-22T05:29:50.314Z,96644.00
2023-05-22T05:32:17.668Z,96650.00
2023-05-22T05:34:44.963Z,96645.00
2023-05-22T05:37:12.171Z,96651.00
2023-05-22T05:39:39.401Z,96655.00
2023-05-22T05:42:06.764Z,96650.00
2023-05-22T05:44:33.994Z,96656.00
2023-05-22T05:47:02.042Z,96652.00
2023-05-22T05:49:29.297Z,96663.00
2023-05-22T05:51:56.530Z,96649.00
2023-05-22T05:54:26.163Z,96657.00
2023-05-22T05:56:53.435Z,96660.00
2023-05-22T05:59:20.668Z,96652.00
2023-05-22T06:01:48.189Z,96657.00
2023-05-22T06:04:15.546Z,96659.00
2023-05-22T06:06:44.202Z,96653.00
2023-05-22T06:09:12.037Z,96658.00
2023-05-22T06:11:39.245Z,96664.00
2023-05-22T06:14:10.509Z,96665.00
2023-05-22T06:16:37.770Z,96669.00
2023-05-22T06:19:05.128Z,96671.00
2023-05-22T06:21:32.393Z,96666.00
2023-05-22T06:23:59.681Z,96664.00
2023-05-22T06:26:27.681Z,96669.00
2023-05-22T06:28:54.896Z,96675.00
2023-05-22T06:31:24.427Z,96661.00
2023-05-22T06:33:52.084Z,96671.00
2023-05-22T06:36:19.436Z,96667.00
2023-05-22T06:38:46.663Z,96675.00
2023-05-22T06:41:13.899Z,96676.00
2023-05-22T06:43:41.093Z,96664.00
2023-05-22T06:46:08.426Z,96673.00
2023-05-22T06:48:36.077Z,96677.00
2023-05-22T06:51:04.288Z,96670.00
2023-05-22T06:53:31.564Z,96668.00
2023-05-22T06:55:58.867Z,96673.00
2023-05-22T06:58:26.603Z,96672.00
2023-05-22T07:00:55.274Z,96672.00
2023-05-22T07:03:22.787Z,96673.00
2023-05-22T07:05:51.192Z,96671.00
2023-05-22T07:08:18.459Z,96674.00
2023-05-22T07:10:45.695Z,96676.00
2023-05-22T07:13:13.264Z,96676.00
2023-05-22T07:15:40.465Z,96676.00
2023-05-22T07:18:09.379Z,96678.00
2023-05-22T07:20:38.558Z,96679.00
2023-05-22T07:23:06.004Z,96686.00
2023-05-22T07:25:33.205Z,96681.00
2023-05-22T07:28:02.030Z,96679.00
2023-05-22T07:30:29.688Z,96680.00
2023-05-22T07:32:56.975Z,96682.00
2023-05-22T07:35:24.509Z,96679.00
2023-05-22T07:37:51.764Z,96671.00
2023-05-22T07:40:18.947Z,96670.00
2023-05-22T07:42:46.165Z,96675.00
2023-05-22T07:45:13.395Z,96676.00
2023-05-22T07:47:40.861Z,96674.00
2023-05-22T07:50:08.788Z,96674.00
2023-05-22T07:52:36.030Z,96679.00
2023-05-22T07:55:03.390Z,96674.00
2023-05-22T07:57:30.733Z,96678.00
2023-05-22T07:59:59.234Z,96674.00
2023-05-22T08:02:27.015Z,96664.00
2023-05-22T08:04:54.334Z,96668.00
2023-05-22T08:07:21.596Z,96662.00
2023-05-22T08:09:48.883Z,96665.00
2023-05-22T08:12:16.118Z,96661.00
2023-05-22T08:14:43.356Z,96656.00
2023-05-22T08:17:10.638Z,96661.00
2023-05-22T08:19:38.007Z,96658.00
2023-05-22T08:22:05.444Z,96654.00
2023-05-22T08:24:32.681Z,96654.00
2023-05-22T08:27:00.686Z,96657.00
2023-05-22T08:29:28.434Z,96657.00
2023-05-22T08:31:56.946Z,96657.00
2023-05-22T08:34:24.934Z,96659.00
2023-05-22T08:36:52.252Z,96656.00
2023-05-22T08:39:19.544Z,96658.00
2023-05-22T08:41:47.648Z,96659.00
2023-05-22T08:44:15.046Z,96655.00
2023-05-22T08:46:44.019Z,96662.00
2023-05-22T08:49:12.713Z,96663.00
2023-05-22T08:51:42.351Z,96655.00
2023-05-22T08:54:09.992Z,96662.00
2023-05-22T08:56:45.426Z,96656.00
2023-05-22T08:59:20.898Z,96654.00
2023-05-22T09:01:48.648Z,96655.00
2023-05-22T09:04:16.266Z,96654.00
2023-05-22T09:06:43.472Z,96657.00
2023-05-22T09:09:13.319Z,96662.00
2023-05-22T09:11:54.272Z,96658.00
2023-05-22T09:14:21.582Z,96652.00
2023-05-22T09:16:58.798Z,96653.00
2023-05-22T09:19:26.530Z,96659.00
2023-05-22T09:22:09.346Z,96659.00
2023-05-22T09:24:48.592Z,96665.00
2023-05-22T09:27:41.050Z,96664.00
2023-05-22T09:30:09.701Z,96661.00
2023-05-22T09:32:42.810Z,96661.00
2023-05-22T09:35:40.588Z,96669.00
2023-05-22T09:38:40.876Z,96666.00
2023-05-22T09:41:34.866Z,96666.00
2023-05-22T09:44:41.693Z,96668.00
2023-05-22T09:47:41.544Z,96658.00
2023-05-22T09:50:41.958Z,96655.00
2023-05-22T09:59:57.423Z,96652.00
2023-05-22T10:02:26.414Z,96648.00
2023-05-22T10:04:54.651Z,96655.00
2023-05-22T10:07:24.508Z,96655.00
2023-05-22T10:09:57.143Z,96645.00
2023-05-22T10:12:24.458Z,96641.00
2023-05-22T10:14:51.748Z,96648.00
2023-05-22T10:17:19.354Z,96640.00
2023-05-22T10:19:47.847Z,96646.00
2023-05-22T10:22:20.755Z,96646.00
2023-05-22T10:24:49.219Z,96649.00
2023-05-22T10:27:16.454Z,96648.00
2023-05-22T10:29:51.202Z,96645.00
2023-05-22T10:32:24.828Z,96649.00
2023-05-22T10:35:03.741Z,96649.00
2023-05-22T10:37:59.292Z,96650.00
2023-05-22T10:40:30.377Z,96644.00
2023-05-22T10:42:59.575Z,96638.00
2023-05-22T10:45:28.948Z,96631.00
2023-05-22T10:48:06.789Z,96633.00
2023-05-22T10:50:34.910Z,96625.00
2023-05-22T10:53:25.481Z,96622.00
2023-05-22T10:56:02.506Z,96624.00
2023-05-22T10:58:30.921Z,96623.00
2023-05-22T11:01:15.435Z,96617.00
2023-05-22T11:03:55.167Z,96616.00
2023-05-22T11:06:35.968Z,96616.00
2023-05-22T11:09:18.889Z,96612.00
2023-05-22T11:11:46.911Z,96609.00
2023-05-22T11:14:17.940Z,96613.00
2023-05-22T11:16:45.382Z,96610.00
2023-05-22T11:21:44.676Z,96635.00
2023-05-22T11:24:12.869Z,96639.00
2023-05-22T11:26:43.157Z,96640.00
2023-05-22T11:29:10.812Z,96646.00
2023-05-22T11:31:38.456Z,96650.00
2023-05-22T11:34:06.008Z,96651.00
2023-05-22T11:36:33.284Z,96655.00
2023-05-22T11:39:00.536Z,96637.00
2023-05-22T11:41:33.846Z,96631.00
2023-05-22T11:44:02.073Z,96647.00
2023-05-22T11:46:30.258Z,96648.00
2023-05-22T11:48:57.639Z,96642.00
2023-05-22T11:51:24.982Z,96654.00
2023-05-22T11:53:52.222Z,96656.00
2023-05-22T11:56:23.761Z,96657.00
2023-05-22T11:58:51.884Z,96646.00
2023-05-22T12:01:19.166Z,96644.00
2023-05-22T12:03:46.505Z,96642.00
2023-05-22T12:06:15.770Z,96637.00
2023-05-22T12:08:44.765Z,96637.00
2023-05-22T12:11:15.128Z,96634.00
2023-05-22T12:13:42.370Z,96627.00
2023-05-22T12:16:20.048Z,96625.00
2023-05-22T12:18:47.485Z,96640.00
2023-05-22T12:21:14.773Z,96618.00
2023-05-22T12:23:50.027Z,96624.00
2023-05-22T12:26:17.906Z,96635.00
2023-05-22T12:28:45.380Z,96635.00
2023-05-22T12:31:21.748Z,96640.00
2023-05-22T12:33:49.037Z,96639.00
2023-05-22T12:36:16.271Z,96640.00
2023-05-22T12:38:44.310Z,96644.00
2023-05-22T12:41:11.489Z,96644.00
2023-05-22T12:43:38.702Z,96637.00
2023-05-22T12:46:06.170Z,96637.00
2023-05-22T12:48:33.428Z,96630.00
2023-05-22T12:51:00.889Z,96629.00
2023-05-22T12:53:28.239Z,96632.00
2023-05-22T12:55:55.516Z,96638.00
2023-05-22T12:58:22.729Z,96648.00
2023-05-22T13:00:49.958Z,96636.00
2023-05-22T13:03:17.310Z,96633.00
2023-05-22T13:05:45.133Z,96628.00
2023-05-22T13:08:12.369Z,96620.00
2023-05-22T13:10:39.582Z,96618.00
2023-05-22T13:13:06.799Z,96618.00
2023-05-22T13:15:36.034Z,96625.00
2023-05-22T13:18:04.077Z,96623.00
2023-05-22T13:20:31.499Z,96628.00
2023-05-22T13:22:58.707Z,96622.00
2023-05-22T13:25:25.924Z,96626.00
2023-05-22T13:27:53.165Z,96625.00
2023-05-22T13:30:20.529Z,96626.00
2023-05-22T13:32:47.893Z,96617.00
2023-05-22T13:35:15.206Z,96609.00
2023-05-22T13:37:42.448Z,96609.00
2023-05-22T13:40:10.405Z,96609.00
2023-05-22T13:42:37.826Z,96610.00
2023-05-22T13:45:06.145Z,96602.00
2023-05-22T13:47:33.533Z,96605.00
2023-05-22T13:50:00.815Z,96600.00
2023-05-22T13:52:28.665Z,96607.00
2023-05-22T13:54:56.101Z,96594.00
2023-05-22T13:57:23.402Z,96594.00
2023-05-22T13:59:50.681Z,96594.00
2023-05-22T14:02:20.549Z,96604.00
2023-05-22T14:04:48.795Z,96597.00
2023-05-22T14:07:16.502Z,96599.00
2023-05-22T14:09:43.721Z,96599.00
2023-05-22T14:12:10.967Z,96599.00
2023-05-22T14:14:38.180Z,96600.00
2023-05-22T14:17:07.420Z,96601.00
2023-05-22T14:19:34.864Z,96602.00
2023-05-22T14:22:02.135Z,96597.00
2023-05-22T14:24:29.599Z,96599.00
2023-05-22T14:26:58.155Z,96592.00
2023-05-22T14:29:25.927Z,96595.00
2023-05-22T14:31:58.227Z,96590.00
2023-05-22T14:34:25.441Z,96594.00
2023-05-22T14:36:52.658Z,96589.00
2023-05-22T14:39:19.881Z,96585.00
2023-05-22T14:41:47.103Z,96585.00
2023-05-22T14:44:14.362Z,96585.00
2023-05-22T14:46:41.647Z,96588.00
2023-05-22T14:49:08.900Z,96581.00
2023-05-22T14:51:36.114Z,96575.00
2023-05-22T14:54:03.784Z,96572.00
2023-05-22T14:56:31.081Z,96574.00
2023-05-22T14:58:58.490Z,96562.00
2023-05-22T15:01:25.797Z,96564.00
2023-05-22T15:03:53.137Z,96558.00
2023-05-22T15:06:20.411Z,96555.00
2023-05-22T15:08:47.620Z,96553.00
2023-05-22T15:11:14.841Z,96559.00
2023-05-22T15:13:42.136Z,96557.00
2023-05-22T15:16:09.392Z,96564.00
2023-05-22T15:18:36.631Z,96560.00
2023-05-22T15:21:04.257Z,96558.00
2023-05-22T15:23:31.445Z,96564.00
2023-05-22T15:25:58.640Z,96569.00
2023-05-22T15:28:25.842Z,96569.00
2023-05-22T15:30:53.066Z,96567.00
2023-05-22T15:33:21.604Z,96572.00
2023-05-22T15:35:48.914Z,96572.00
2023-05-22T15:38:16.563Z,96570.00
2023-05-22T15:40:44.477Z,96565.00
2023-05-22T15:43:12.117Z,96563.00
2023-05-22T15:45:39.887Z,96564.00
2023-05-22T15:48:07.833Z,96560.00
2023-05-22T15:50:35.220Z,96562.00
2023-05-22T15:53:02.515Z,96561.00
2023-05-22T15:55:29.799Z,96555.00
2023-05-22T15:57:58.967Z,96560.00
2023-05-22T16:00:27.507Z,96563.00
2023-05-22T16:02:54.933Z,96560.00
2023-05-22T16:05:22.337Z,96565.00
2023-05-22T16:07:49.570Z,96572.00
2023-05-22T16:10:16.848Z,96582.00
2023-05-22T16:12:46.225Z,96582.00
2023-05-22T16:15:13.504Z,96579.00
2023-05-22T16:17:40.892Z,96585.00
2023-05-22T16:20:08.805Z,96580.00
2023-05-22T16:22:47.334Z,96575.00
2023-05-22T16:25:17.045Z,96577.00
2023-05-22T16:27:44.561Z,96585.00
2023-05-22T16:30:12.233Z,96580.00
2023-05-22T16:32:39.720Z,96575.00
2023-05-22T16:35:07.165Z,96581.00
2023-05-22T16:37:35.498Z,96571.00
2023-05-22T16:40:02.807Z,96572.00
2023-05-22T16:42:30.004Z,96564.00
2023-05-22T16:44:57.256Z,96562.00
2023-05-22T16:47:24.520Z,96566.00
2023-05-22T16:49:51.756Z,96565.00
2023-05-22T16:52:22.209Z,96561.00
2023-05-22T16:54:49.712Z,96569.00
2023-05-22T16:57:16.931Z,96571.00
2023-05-22T16:59:44.659Z,96578.00
2023-05-22T17:02:12.087Z,96592.00
2023-05-22T17:04:40.198Z,96593.00
2023-05-22T17:07:07.493Z,96596.00
2023-05-22T17:09:34.735Z,96600.00
2023-05-22T17:12:02.208Z,96590.00
2023-05-22T17:14:29.433Z,96594.00
2023-05-22T17:16:56.700Z,96594.00
2023-05-22T17:19:23.941Z,96597.00
2023-05-22T17:21:51.363Z,96596.00
2023-05-22T17:24:18.547Z,96602.00
2023-05-22T17:26:48.012Z,96602.00
2023-05-22T17:29:15.298Z,96611.00
2023-05-22T17:31:49.172Z,96613.00
2023-05-22T17:34:16.908Z,96619.00
2023-05-22T17:36:45.011Z,96622.00
2023-05-22T17:39:12.548Z,96620.00
2023-05-22T17:41:39.899Z,96623.00
2023-05-22T17:44:07.161Z,96624.00
2023-05-22T17:46:34.628Z,96632.00
2023-05-22T17:49:01.964Z,96638.00
2023-05-22T17:51:29.163Z,96634.00
2023-05-22T17:53:58.895Z,96639.00
2023-05-22T17:56:26.611Z,96651.00
2023-05-22T17:58:53.934Z,96659.00
2023-05-22T18:01:21.241Z,96659.00
2023-05-22T18:03:48.587Z,96661.00
2023-05-22T18:06:16.088Z,96665.00
2023-05-22T18:08:43.346Z,96659.00
2023-05-22T18:11:10.957Z,96661.00
2023-05-22T18:13:38.171Z,96665.00
2023-05-22T18:16:05.623Z,96674.00
2023-05-22T18:18:32.961Z,96670.00
2023-05-22T18:21:00.256Z,96668.00
2023-05-22T18:23:27.481Z,96673.00
2023-05-22T18:25:54.816Z,96673.00
2023-05-22T18:28:26.423Z,96678.00
2023-05-22T18:30:54.025Z,96684.00
2023-05-22T18:33:23.842Z,96687.00
2023-05-22T18:35:51.207Z,96695.00
2023-05-22T18:38:18.426Z,96689.00
2023-05-22T18:40:47.178Z,96686.00
2023-05-22T18:43:14.405Z,96688.00
2023-05-22T18:45:41.637Z,96689.00
2023-05-22T18:48:08.873Z,96692.00
2023-05-22T18:50:36.258Z,96696.00
2023-05-22T18:53:03.466Z,96696.00
2023-05-22T18:55:30.670Z,96689.00
2023-05-22T18:57:57.954Z,96696.00
2023-05-22T19:00:25.250Z,96688.00
2023-05-22T19:02:52.578Z,96684.00
2023-05-22T19:05:20.035Z,96690.00
2023-05-22T19:07:47.270Z,96684.00
2023-05-22T19:10:14.484Z,96683.00
2023-05-22T19:12:41.727Z,96687.00
2023-05-22T19:15:09.500Z,96693.00
2023-05-22T19:17:36.775Z,96696.00
2023-05-22T19:20:07.212Z,96702.00
2023-05-22T19:22:34.598Z,96702.00
2023-05-22T19:25:02.743Z,96706.00
2023-05-22T19:27:30.033Z,96713.00
2023-05-22T19:29:57.265Z,96709.00
2023-05-22T19:32:24.460Z,96713.00
2023-05-22T19:34:51.690Z,96718.00
2023-05-22T19:37:18.974Z,96716.00
2023-05-22T19:39:46.194Z,96723.00
2023-05-22T19:42:13.474Z,96731.00
2023-05-22T19:44:40.676Z,96742.00
2023-05-22T19:47:08.057Z,96740.00
2023-05-22T19:49:37.041Z,96739.00
2023-05-22T19:52:05.732Z,96746.00
2023-05-22T19:54:33.027Z,96739.00
2023-05-22T19:57:00.288Z,96750.00
2023-05-22T19:59:27.761Z,96745.00
2023-05-22T20:01:56.024Z,96749.00
2023-05-22T20:04:23.356Z,96752.00
2023-05-22T20:06:50.800Z,96748.00
2023-05-22T20:09:18.158Z,96753.00
2023-05-22T20:11:45.534Z,96751.00
2023-05-22T20:14:13.526Z,96757.00
2023-05-22T20:16:40.951Z,96751.00
2023-05-22T20:19:09.112Z,96752.00
2023-05-22T20:21:36.577Z,96754.00
2023-05-22T20:24:06.022Z,96754.00
2023-05-22T20:26:33.377Z,96748.00
2023-05-22T20:29:01.355Z,96751.00
2023-05-22T20:31:28.713Z,96765.00
2023-05-22T20:33:59.011Z,96764.00
2023-05-22T20:36:26.375Z,96765.00
2023-05-22T20:38:54.339Z,96764.00
2023-05-22T20:41:22.775Z,96762.00
2023-05-22T20:43:50.462Z,96768.00
2023-05-22T20:46:18.126Z,96762.00
2023-05-22T20:48:48.116Z,96765.00
2023-05-22T20:51:17.971Z,96770.00
2023-05-22T20:53:45.656Z,96766.00
2023-05-22T20:56:12.943Z,96766.00
2023-05-22T20:58:40.493Z,96760.00
2023-05-22T21:01:07.937Z,96767.00
2023-05-22T21:03:35.579Z,96769.00
2023-05-22T21:06:02.856Z,96774.00
2023-05-22T21:08:30.202Z,96785.00
2023-05-22T21:10:57.427Z,96782.00
2023-05-22T21:13:24.644Z,96789.00
2023-05-22T21:15:51.923Z,96790.00
2023-05-22T21:18:22.063Z,96784.00
2023-05-22T21:20:49.300Z,96788.00
2023-05-22T21:23:16.603Z,96795.00
2023-05-22T21:25:43.811Z,96791.00
2023-05-22T21:28:11.084Z,96795.00
2023-05-22T21:30:38.486Z,96800.00
2023-05-22T21:33:06.027Z,96811.00
2023-05-22T21:35:33.257Z,96815.00
2023-05-22T21:38:00.963Z,96820.00
2023-05-22T21:40:28.182Z,96817.00
2023-05-22T21:42:55.374Z,96830.00
2023-05-22T21:45:22.705Z,96826.00
2023-05-22T21:47:50.021Z,96827.00
2023-05-22T21:50:17.538Z,96838.00
2023-05-22T21:52:44.738Z,96832.00
2023-05-22T21:55:12.157Z,96823.00
2023-05-22T21:57:39.728Z,96835.00
2023-05-22T22:00:07.849Z,96836.00
2023-05-22T22:02:35.211Z,96829.00
2023-05-22T22:05:02.551Z,96843.00
2023-05-22T22:07:29.740Z,96839.00
2023-05-22T22:09:57.918Z,96846.00
2023-05-22T22:12:25.184Z,96842.00
2023-05-22T22:14:52.501Z,96845.00
2023-05-22T22:17:23.825Z,96848.00
2023-05-22T22:19:53.464Z,96846.00
2023-05-22T22:22:22.592Z,96846.00
2023-05-22T22:24:49.952Z,96850.00
2023-05-22T22:27:17.536Z,96844.00
2023-05-22T22:29:44.815Z,96843.00
2023-05-22T22:32:12.951Z,96853.00
2023-05-22T22:34:40.422Z,96857.00
2023-05-22T22:37:07.796Z,96857.00
2023-05-22T22:39:35.078Z,96849.00
2023-05-22T22:42:05.017Z,96855.00
2023-05-22T22:44:32.853Z,96863.00
2023-05-22T22:47:02.221Z,96865.00
2023-05-22T22:49:29.463Z,96856.00
2023-05-22T22:51:57.431Z,96859.00
2023-05-22T22:54:24.964Z,96859.00
2023-05-22T22:56:52.465Z,96862.00
2023-05-22T22:59:19.692Z,96853.00
2023-05-22T23:01:46.965Z,96855.00
2023-05-22T23:04:14.581Z,96854.00
2023-05-22T23:06:42.606Z,96864.00
2023-05-22T23:09:11.006Z,96855.00
2023-05-22T23:11:38.709Z,96852.00
2023-05-22T23:14:09.260Z,96857.00
2023-05-22T23:16:37.984Z,96853.00
2023-05-22T23:19:06.323Z,96851.00
2023-05-22T23:21:33.886Z,96855.00
2023-05-22T23:24:02.454Z,96850.00
2023-05-22T23:26:29.865Z,96849.00
2023-05-22T23:28:58.301Z,96849.00
2023-05-22T23:31:30.353Z,96856.00
2023-05-22T23:33:58.175Z,96857.00
2023-05-22T23:36:25.869Z,96861.00
2023-05-22T23:38:53.109Z,96865.00
2023-05-22T23:41:20.302Z,96867.00
2023-05-22T23:43:47.616Z,96861.00
2023-05-22T23:46:14.982Z,96859.00
2023-05-22T23:48:42.672Z,96867.00
2023-05-22T23:51:10.061Z,96858.00
2023-05-22T23:53:37.445Z,96859.00
2023-05-22T23:56:05.057Z,96865.00
2023-05-22T23:58:32.400Z,96860.00
